Afton, Texas
Current Conditions -  °F | °C
As of 11:53 AM on Thursday 30 Oct 2014 (Local Time) from KCDS Reporting Station
Clear Clear  
Wind Chill: 22°   Ceiling: Unl
Heat Index: 22°   Visibility: 10mi
Dew Point:   Wind: 10mph
Humidity: 44%   Direction: 360°N
Pressure: 30.18"   Gusts: NA
Location:  33.76°N, 100.82°W
Report Text: KCDS 301653Z AUTO 36009KT 10SM CLR 22/09 A3018 RMK AO2 SLP204 T02170089
Loading
Personal Weather Stations






























Interactive Weather Map
Tropical Storm Tracking
New forecast layout! Learn more

10-Day Weather Forecast

Advertisements
Track Severe Weather on mobile